Terminal Aerodrome Forecast
Issued by NWS

Home | Current Version | Previous Version | Text Only | Print | Product List | Glossary On
Versions: 1 2 3 4 5 6 7 8 9 10 11 12 13 14 15 16
622
FTUS44 KCRP 281121
TAFALI
TAF
KALI 281121Z 2812/2912 16012KT P6SM OVC020
      TEMPO 2812/2814 6SM BR
     FM281500 15012G18KT P6SM BKN025 OVC040
     FM282000 14018G25KT P6SM SCT040 BKN150
     FM290300 16009KT P6SM VCSH SCT015 BKN025 OVC100 PROB30
      2909/2912 VRB15G30KT 3SM TSRA BKN012CB OVC020=

USA.gov is the U.S. government's official web portal to all federal, state and local government web resources and services.